ADDS METAR Data INFO
IDs: Format: Raw Decoded Include TAF

Data at: 1333 UTC 25 Sep 2017

KHRL 251252Z 13010KT 9SM FEW019 26/24 A2979 RMK AO2 SLP088 T02610244
KHRL 251152Z 15005KT 8SM FEW020 24/24 A2978 RMK AO2 SLP083 T02440244 10272 20244 56002
KHRL 251052Z 13006KT 9SM CLR 26/24 A2978 RMK AO2 SLP083 T02560244
KHRL 250952Z AUTO 14007KT 10SM CLR 26/24 A2978 RMK AO2 SLP085 T02610244
KHRL 250852Z AUTO 13007KT 10SM CLR 26/24 A2979 RMK AO2 SLP086 T02560244 58009
KHRL 250752Z AUTO 13006KT 10SM CLR 26/24 A2980 RMK AO2 SLP089 T02610244
KHRL 250652Z AUTO 13007KT 10SM CLR 27/25 A2980 RMK AO2 SLP092 T02670250
KHRL 250552Z AUTO 13008KT 10SM CLR 27/25 A2981 RMK AO2 SLP095 T02670250 10306 20267 403670233 50004
KHRL 250452Z 13008KT 10SM CLR 27/25 A2982 RMK AO2 SLP096 T02720250
KHRL 250352Z 13009KT 10SM CLR 28/25 A2982 RMK AO2 SLP098 T02780250
KHRL 250252Z 12009KT 10SM CLR 28/25 A2980 RMK AO2 SLP091 T02780250 53016
KHRL 250152Z 12012KT 10SM CLR 28/25 A2979 RMK AO2 SLP086 T02830250
KHRL 250052Z 11014KT 10SM CLR 29/24 A2976 RMK AO2 SLP077 T02890244
KHRL 242352Z 12015KT 10SM CLR 31/23 A2975 RMK AO2 SLP075 T03060228 10367 20306 53009
KHRL 242252Z 10018KT 10SM FEW041 32/22 A2974 RMK AO2 SLP069 T03170222
KHRL 242152Z 11018KT 10SM BKN042 BKN055 34/23 A2973 RMK AO2 PK WND 12027/2126 SLP067 T03390228
KHRL 242052Z 12016G21KT 10SM FEW060 36/21 A2973 RMK AO2 SLP066 T03610206 56023
KHRL 241952Z 15014G21KT 10SM SCT055 SCT070 34/21 A2975 RMK AO2 SLP073 T03440206
KHRL 241852Z 17009G16KT 10SM SCT055 36/21 A2977 RMK AO2 SLP080 T03560206
KHRL 241752Z 18012G20KT 10SM CLR 34/22 A2979 RMK AO2 SLP089 T03440217 10344 20233 58010
KHRL 241652Z 15007G19KT 10SM SCT037 BKN046 BKN065 33/23 A2981 RMK AO2 SLP096 T03280233
KHRL 241552Z 15013KT 10SM FEW030 32/23 A2982 RMK AO2 SLP098 T03220233
KHRL 241452Z 16011KT 10SM SCT021 29/24 A2982 RMK AO2 SLP098 T02940244 52009
KHRL 241352Z 15008KT 10SM FEW022 28/24 A2981 RMK AO2 SLP095 T02780244
KHRL 241252Z 00000KT 10SM CLR 24/23 A2980 RMK AO2 SLP092 T02390233
KHRL 241152Z 12006KT 10SM CLR 24/24 A2980 RMK AO2 SLP089 T02440239 10256 20233 55002
KHRL 241052Z AUTO 11005KT 10SM CLR 24/23 A2979 RMK AO2 SLP088 T02390228
KHRL 240952Z AUTO 11005KT 10SM CLR 23/23 A2979 RMK AO2 SLP088 T02330228
KHRL 240852Z AUTO 12004KT 10SM CLR 23/23 A2980 RMK AO2 SLP091 T02330228 57007
KHRL 240752Z AUTO 11003KT 10SM CLR 24/23 A2981 RMK AO2 SLP094 T02440233
KHRL 240652Z AUTO 16005KT 10SM CLR 25/24 A2981 RMK AO2 SLP095 T02500239
KHRL 240552Z AUTO 14005KT 10SM CLR 26/24 A2982 RMK AO2 SLP098 T02560244 10300 20256 403560228 50008
KHRL 240352Z 10006KT 10SM CLR 27/24 A2981
KHRL 240252Z 10009KT 10SM CLR 27/24 A2980
KHRL 240152Z 12009KT 10SM CLR 28/24 A2980